sensor_id;sensor_type;location;lat;lon;timestamp;P1;durP1;ratioP1;P2;durP2;ratioP2
54683;SDS011;40582;53.100;6.686;2023-02-02T00:01:55;39.58;;;6.45;;
54683;SDS011;40582;53.100;6.686;2023-02-02T00:04:23;41.42;;;6.00;;
54683;SDS011;40582;53.100;6.686;2023-02-02T00:06:53;42.47;;;6.20;;
54683;SDS011;40582;53.100;6.686;2023-02-02T00:09:21;44.92;;;6.35;;
54683;SDS011;40582;53.100;6.686;2023-02-02T00:11:48;43.72;;;7.35;;
54683;SDS011;40582;53.100;6.686;2023-02-02T00:14:15;40.13;;;6.25;;
54683;SDS011;40582;53.100;6.686;2023-02-02T00:16:43;41.72;;;5.53;;
54683;SDS011;40582;53.100;6.686;2023-02-02T00:19:16;41.28;;;6.65;;
54683;SDS011;40582;53.100;6.686;2023-02-02T00:21:46;50.25;;;9.80;;
54683;SDS011;40582;53.100;6.686;2023-02-02T00:24:13;55.42;;;8.18;;
54683;SDS011;40582;53.100;6.686;2023-02-02T00:26:42;41.08;;;6.80;;
54683;SDS011;40582;53.100;6.686;2023-02-02T00:29:13;38.00;;;6.80;;
54683;SDS011;40582;53.100;6.686;2023-02-02T00:31:41;48.08;;;6.85;;
54683;SDS011;40582;53.100;6.686;2023-02-02T00:34:08;48.58;;;6.28;;
54683;SDS011;40582;53.100;6.686;2023-02-02T00:36:35;54.75;;;6.07;;
54683;SDS011;40582;53.100;6.686;2023-02-02T00:39:01;44.72;;;6.63;;
54683;SDS011;40582;53.100;6.686;2023-02-02T00:41:27;48.22;;;7.75;;
54683;SDS011;40582;53.100;6.686;2023-02-02T00:43:52;47.10;;;7.45;;
54683;SDS011;40582;53.100;6.686;2023-02-02T00:46:39;44.30;;;7.03;;
54683;SDS011;40582;53.100;6.686;2023-02-02T00:49:06;54.92;;;7.50;;
54683;SDS011;40582;53.100;6.686;2023-02-02T00:51:31;40.45;;;6.50;;
54683;SDS011;40582;53.100;6.686;2023-02-02T00:53:57;47.47;;;6.90;;
54683;SDS011;40582;53.100;6.686;2023-02-02T00:56:23;51.50;;;6.85;;
54683;SDS011;40582;53.100;6.686;2023-02-02T00:58:50;49.78;;;6.82;;
54683;SDS011;40582;53.100;6.686;2023-02-02T01:01:16;47.97;;;7.35;;
54683;SDS011;40582;53.100;6.686;2023-02-02T01:03:45;49.17;;;7.75;;
54683;SDS011;40582;53.100;6.686;2023-02-02T01:06:11;54.83;;;7.47;;
54683;SDS011;40582;53.100;6.686;2023-02-02T01:08:37;49.55;;;7.30;;
54683;SDS011;40582;53.100;6.686;2023-02-02T01:11:03;48.88;;;6.43;;
54683;SDS011;40582;53.100;6.686;2023-02-02T01:13:29;54.85;;;6.70;;
54683;SDS011;40582;53.100;6.686;2023-02-02T01:15:55;62.35;;;7.43;;
54683;SDS011;40582;53.100;6.686;2023-02-02T01:18:22;48.80;;;6.20;;
54683;SDS011;40582;53.100;6.686;2023-02-02T01:20:58;58.13;;;7.35;;
54683;SDS011;40582;53.100;6.686;2023-02-02T01:23:31;66.10;;;7.82;;
54683;SDS011;40582;53.100;6.686;2023-02-02T01:25:58;51.95;;;7.28;;
54683;SDS011;40582;53.100;6.686;2023-02-02T01:28:26;48.53;;;7.75;;
54683;SDS011;40582;53.100;6.686;2023-02-02T01:30:53;55.70;;;6.80;;
54683;SDS011;40582;53.100;6.686;2023-02-02T01:33:19;47.67;;;6.57;;
54683;SDS011;40582;53.100;6.686;2023-02-02T01:35:49;48.92;;;6.60;;
54683;SDS011;40582;53.100;6.686;2023-02-02T01:38:16;44.15;;;5.90;;
54683;SDS011;40582;53.100;6.686;2023-02-02T01:40:43;40.42;;;5.90;;
54683;SDS011;40582;53.100;6.686;2023-02-02T01:43:14;56.67;;;7.40;;
54683;SDS011;40582;53.100;6.686;2023-02-02T01:45:52;39.17;;;6.57;;
54683;SDS011;40582;53.100;6.686;2023-02-02T01:48:20;42.15;;;5.43;;
54683;SDS011;40582;53.100;6.686;2023-02-02T01:50:49;49.45;;;6.70;;
54683;SDS011;40582;53.100;6.686;2023-02-02T01:53:16;44.33;;;6.43;;
54683;SDS011;40582;53.100;6.686;2023-02-02T01:55:45;54.20;;;6.65;;
54683;SDS011;40582;53.100;6.686;2023-02-02T01:58:22;43.63;;;6.85;;
54683;SDS011;40582;53.100;6.686;2023-02-02T02:00:54;45.17;;;6.88;;
54683;SDS011;40582;53.100;6.686;2023-02-02T02:03:20;38.42;;;5.40;;
54683;SDS011;40582;53.100;6.686;2023-02-02T02:05:57;44.22;;;5.97;;
54683;SDS011;40582;53.100;6.686;2023-02-02T02:11:08;44.30;;;6.55;;
54683;SDS011;40582;53.100;6.686;2023-02-02T02:13:35;54.03;;;6.35;;
54683;SDS011;40582;53.100;6.686;2023-02-02T02:16:35;50.08;;;6.05;;
54683;SDS011;40582;53.100;6.686;2023-02-02T02:19:18;39.63;;;5.22;;
54683;SDS011;40582;53.100;6.686;2023-02-02T02:36:11;57.53;;;7.47;;
54683;SDS011;40582;53.100;6.686;2023-02-02T02:41:39;43.53;;;6.05;;
54683;SDS011;40582;53.100;6.686;2023-02-02T02:44:10;51.70;;;5.70;;
54683;SDS011;40582;53.100;6.686;2023-02-02T02:46:38;49.70;;;6.60;;
54683;SDS011;40582;53.100;6.686;2023-02-02T02:49:06;52.85;;;6.00;;
54683;SDS011;40582;53.100;6.686;2023-02-02T02:54:10;52.35;;;6.82;;
54683;SDS011;40582;53.100;6.686;2023-02-02T02:56:46;58.53;;;6.55;;
54683;SDS011;40582;53.100;6.686;2023-02-02T02:59:31;47.65;;;6.15;;
54683;SDS011;40582;53.100;6.686;2023-02-02T03:04:55;57.70;;;7.03;;
54683;SDS011;40582;53.100;6.686;2023-02-02T03:07:42;58.42;;;7.28;;
54683;SDS011;40582;53.100;6.686;2023-02-02T03:12:45;54.30;;;6.20;;
54683;SDS011;40582;53.100;6.686;2023-02-02T03:15:12;62.38;;;7.22;;
54683;SDS011;40582;53.100;6.686;2023-02-02T03:17:39;67.18;;;6.85;;
54683;SDS011;40582;53.100;6.686;2023-02-02T03:20:06;44.78;;;6.72;;
54683;SDS011;40582;53.100;6.686;2023-02-02T03:22:32;43.88;;;5.70;;
54683;SDS011;40582;53.100;6.686;2023-02-02T03:24:58;54.60;;;6.63;;
54683;SDS011;40582;53.100;6.686;2023-02-02T03:27:24;58.00;;;6.47;;
54683;SDS011;40582;53.100;6.686;2023-02-02T03:29:50;47.40;;;5.95;;
54683;SDS011;40582;53.100;6.686;2023-02-02T03:32:16;41.47;;;6.30;;
54683;SDS011;40582;53.100;6.686;2023-02-02T03:34:42;51.22;;;5.80;;
54683;SDS011;40582;53.100;6.686;2023-02-02T03:37:08;57.88;;;7.30;;
54683;SDS011;40582;53.100;6.686;2023-02-02T03:39:33;50.97;;;6.30;;
54683;SDS011;40582;53.100;6.686;2023-02-02T03:41:59;58.92;;;6.15;;
54683;SDS011;40582;53.100;6.686;2023-02-02T03:44:25;48.78;;;6.45;;
54683;SDS011;40582;53.100;6.686;2023-02-02T03:46:53;48.05;;;6.15;;
54683;SDS011;40582;53.100;6.686;2023-02-02T03:49:19;47.50;;;5.65;;
54683;SDS011;40582;53.100;6.686;2023-02-02T03:51:45;45.08;;;5.03;;
54683;SDS011;40582;53.100;6.686;2023-02-02T03:54:11;38.50;;;4.85;;
54683;SDS011;40582;53.100;6.686;2023-02-02T03:56:37;34.70;;;4.97;;
54683;SDS011;40582;53.100;6.686;2023-02-02T03:59:03;30.15;;;4.35;;
54683;SDS011;40582;53.100;6.686;2023-02-02T04:01:29;26.05;;;4.25;;
54683;SDS011;40582;53.100;6.686;2023-02-02T04:03:55;31.70;;;4.10;;
54683;SDS011;40582;53.100;6.686;2023-02-02T04:06:22;20.80;;;3.10;;
54683;SDS011;40582;53.100;6.686;2023-02-02T04:08:48;20.33;;;3.13;;
54683;SDS011;40582;53.100;6.686;2023-02-02T04:11:14;14.00;;;2.35;;
54683;SDS011;40582;53.100;6.686;2023-02-02T04:13:40;14.45;;;2.70;;
54683;SDS011;40582;53.100;6.686;2023-02-02T04:16:07;15.68;;;2.53;;
54683;SDS011;40582;53.100;6.686;2023-02-02T04:18:34;11.35;;;1.73;;
54683;SDS011;40582;53.100;6.686;2023-02-02T04:21:02;12.60;;;2.10;;
54683;SDS011;40582;53.100;6.686;2023-02-02T04:23:29;9.85;;;1.98;;
54683;SDS011;40582;53.100;6.686;2023-02-02T04:25:55;9.55;;;2.17;;
54683;SDS011;40582;53.100;6.686;2023-02-02T04:28:21;10.45;;;2.30;;
54683;SDS011;40582;53.100;6.686;2023-02-02T04:30:48;6.18;;;1.20;;
54683;SDS011;40582;53.100;6.686;2023-02-02T04:33:14;7.88;;;1.63;;
54683;SDS011;40582;53.100;6.686;2023-02-02T04:35:43;5.38;;;1.85;;
54683;SDS011;40582;53.100;6.686;2023-02-02T04:38:09;10.15;;;1.92;;
54683;SDS011;40582;53.100;6.686;2023-02-02T04:40:38;6.38;;;1.58;;
54683;SDS011;40582;53.100;6.686;2023-02-02T04:43:08;9.27;;;1.85;;
54683;SDS011;40582;53.100;6.686;2023-02-02T04:45:34;6.65;;;1.40;;
54683;SDS011;40582;53.100;6.686;2023-02-02T04:48:00;6.15;;;1.63;;
54683;SDS011;40582;53.100;6.686;2023-02-02T04:50:27;8.15;;;1.88;;
54683;SDS011;40582;53.100;6.686;2023-02-02T04:52:52;12.35;;;1.70;;
54683;SDS011;40582;53.100;6.686;2023-02-02T04:55:18;8.00;;;1.88;;
54683;SDS011;40582;53.100;6.686;2023-02-02T04:57:44;9.77;;;1.90;;
54683;SDS011;40582;53.100;6.686;2023-02-02T05:00:10;11.68;;;1.85;;
54683;SDS011;40582;53.100;6.686;2023-02-02T05:02:37;8.80;;;2.22;;
54683;SDS011;40582;53.100;6.686;2023-02-02T05:05:04;6.38;;;1.80;;
54683;SDS011;40582;53.100;6.686;2023-02-02T05:07:31;12.02;;;2.08;;
54683;SDS011;40582;53.100;6.686;2023-02-02T05:09:57;11.52;;;2.10;;
54683;SDS011;40582;53.100;6.686;2023-02-02T05:12:22;9.07;;;2.13;;
54683;SDS011;40582;53.100;6.686;2023-02-02T05:14:48;13.13;;;1.95;;
54683;SDS011;40582;53.100;6.686;2023-02-02T05:17:14;14.30;;;2.30;;
54683;SDS011;40582;53.100;6.686;2023-02-02T05:19:40;11.52;;;1.92;;
54683;SDS011;40582;53.100;6.686;2023-02-02T05:22:06;11.50;;;2.22;;
54683;SDS011;40582;53.100;6.686;2023-02-02T05:24:32;12.60;;;2.50;;
54683;SDS011;40582;53.100;6.686;2023-02-02T05:26:58;12.60;;;2.15;;
54683;SDS011;40582;53.100;6.686;2023-02-02T05:29:28;12.75;;;2.55;;
54683;SDS011;40582;53.100;6.686;2023-02-02T05:31:54;14.23;;;2.47;;
54683;SDS011;40582;53.100;6.686;2023-02-02T05:34:20;11.55;;;2.05;;
54683;SDS011;40582;53.100;6.686;2023-02-02T05:36:46;11.02;;;2.03;;
54683;SDS011;40582;53.100;6.686;2023-02-02T05:39:13;13.35;;;2.22;;
54683;SDS011;40582;53.100;6.686;2023-02-02T05:41:39;12.18;;;2.50;;
54683;SDS011;40582;53.100;6.686;2023-02-02T05:44:04;14.32;;;2.65;;
54683;SDS011;40582;53.100;6.686;2023-02-02T05:46:30;12.02;;;2.08;;
54683;SDS011;40582;53.100;6.686;2023-02-02T05:48:56;11.88;;;1.85;;
54683;SDS011;40582;53.100;6.686;2023-02-02T05:54:10;10.13;;;2.10;;
54683;SDS011;40582;53.100;6.686;2023-02-02T05:56:36;10.85;;;2.33;;
54683;SDS011;40582;53.100;6.686;2023-02-02T05:59:01;15.48;;;2.40;;
54683;SDS011;40582;53.100;6.686;2023-02-02T06:01:31;13.75;;;2.30;;
54683;SDS011;40582;53.100;6.686;2023-02-02T06:03:57;9.32;;;1.92;;
54683;SDS011;40582;53.100;6.686;2023-02-02T06:06:23;12.52;;;2.30;;
54683;SDS011;40582;53.100;6.686;2023-02-02T06:08:49;8.98;;;2.00;;
54683;SDS011;40582;53.100;6.686;2023-02-02T06:11:15;10.88;;;1.92;;
54683;SDS011;40582;53.100;6.686;2023-02-02T06:13:42;9.38;;;2.05;;
54683;SDS011;40582;53.100;6.686;2023-02-02T06:16:08;14.88;;;2.25;;
54683;SDS011;40582;53.100;6.686;2023-02-02T06:18:34;11.70;;;2.05;;
54683;SDS011;40582;53.100;6.686;2023-02-02T06:21:01;14.77;;;2.35;;
54683;SDS011;40582;53.100;6.686;2023-02-02T06:23:30;15.82;;;2.42;;
54683;SDS011;40582;53.100;6.686;2023-02-02T06:25:57;13.40;;;2.63;;
54683;SDS011;40582;53.100;6.686;2023-02-02T06:28:23;15.55;;;2.50;;
54683;SDS011;40582;53.100;6.686;2023-02-02T06:30:49;16.08;;;2.72;;
54683;SDS011;40582;53.100;6.686;2023-02-02T06:33:15;15.63;;;2.40;;
54683;SDS011;40582;53.100;6.686;2023-02-02T06:35:41;11.02;;;2.42;;
54683;SDS011;40582;53.100;6.686;2023-02-02T06:38:06;8.93;;;2.10;;
54683;SDS011;40582;53.100;6.686;2023-02-02T06:40:32;18.80;;;3.05;;
54683;SDS011;40582;53.100;6.686;2023-02-02T06:42:59;17.77;;;2.60;;
54683;SDS011;40582;53.100;6.686;2023-02-02T06:45:27;14.30;;;2.30;;
54683;SDS011;40582;53.100;6.686;2023-02-02T06:47:53;11.52;;;2.70;;
54683;SDS011;40582;53.100;6.686;2023-02-02T06:50:24;12.50;;;2.45;;
54683;SDS011;40582;53.100;6.686;2023-02-02T06:52:51;8.15;;;2.17;;
54683;SDS011;40582;53.100;6.686;2023-02-02T06:55:17;18.67;;;2.83;;
54683;SDS011;40582;53.100;6.686;2023-02-02T06:57:44;16.17;;;2.25;;
54683;SDS011;40582;53.100;6.686;2023-02-02T07:00:10;15.30;;;2.85;;
54683;SDS011;40582;53.100;6.686;2023-02-02T07:02:37;11.38;;;3.20;;
54683;SDS011;40582;53.100;6.686;2023-02-02T07:05:03;11.55;;;2.47;;
54683;SDS011;40582;53.100;6.686;2023-02-02T07:07:33;13.30;;;2.90;;
54683;SDS011;40582;53.100;6.686;2023-02-02T07:09:59;13.23;;;2.70;;
54683;SDS011;40582;53.100;6.686;2023-02-02T07:12:25;17.10;;;2.00;;
54683;SDS011;40582;53.100;6.686;2023-02-02T07:14:51;9.23;;;2.25;;
54683;SDS011;40582;53.100;6.686;2023-02-02T07:17:17;12.43;;;2.10;;
54683;SDS011;40582;53.100;6.686;2023-02-02T07:19:44;10.93;;;2.20;;
54683;SDS011;40582;53.100;6.686;2023-02-02T07:22:10;15.60;;;3.13;;
54683;SDS011;40582;53.100;6.686;2023-02-02T07:24:35;14.23;;;2.75;;
54683;SDS011;40582;53.100;6.686;2023-02-02T07:27:04;13.07;;;2.60;;
54683;SDS011;40582;53.100;6.686;2023-02-02T07:29:29;13.93;;;2.65;;
54683;SDS011;40582;53.100;6.686;2023-02-02T07:31:55;16.60;;;2.40;;
54683;SDS011;40582;53.100;6.686;2023-02-02T07:34:21;13.10;;;2.60;;
54683;SDS011;40582;53.100;6.686;2023-02-02T07:36:47;9.98;;;2.20;;
54683;SDS011;40582;53.100;6.686;2023-02-02T07:39:13;13.10;;;2.08;;
54683;SDS011;40582;53.100;6.686;2023-02-02T07:41:39;14.35;;;2.10;;
54683;SDS011;40582;53.100;6.686;2023-02-02T07:44:04;11.13;;;2.33;;
54683;SDS011;40582;53.100;6.686;2023-02-02T07:46:31;9.55;;;2.22;;
54683;SDS011;40582;53.100;6.686;2023-02-02T07:48:57;14.98;;;2.72;;
54683;SDS011;40582;53.100;6.686;2023-02-02T07:51:23;11.43;;;2.42;;
54683;SDS011;40582;53.100;6.686;2023-02-02T07:53:50;11.02;;;1.90;;
54683;SDS011;40582;53.100;6.686;2023-02-02T07:56:18;12.57;;;2.50;;
54683;SDS011;40582;53.100;6.686;2023-02-02T07:58:46;18.58;;;2.63;;
54683;SDS011;40582;53.100;6.686;2023-02-02T08:01:12;8.77;;;1.80;;
54683;SDS011;40582;53.100;6.686;2023-02-02T08:03:39;10.27;;;1.92;;
54683;SDS011;40582;53.100;6.686;2023-02-02T08:06:13;12.63;;;2.55;;
54683;SDS011;40582;53.100;6.686;2023-02-02T08:08:47;9.77;;;2.42;;
54683;SDS011;40582;53.100;6.686;2023-02-02T08:11:14;7.82;;;1.95;;
54683;SDS011;40582;53.100;6.686;2023-02-02T08:13:41;10.32;;;1.83;;
54683;SDS011;40582;53.100;6.686;2023-02-02T08:16:08;9.73;;;2.10;;
54683;SDS011;40582;53.100;6.686;2023-02-02T08:18:35;13.07;;;2.50;;
54683;SDS011;40582;53.100;6.686;2023-02-02T08:21:03;10.07;;;2.55;;
54683;SDS011;40582;53.100;6.686;2023-02-02T08:23:30;9.68;;;2.00;;
54683;SDS011;40582;53.100;6.686;2023-02-02T08:26:05;12.82;;;2.60;;
54683;SDS011;40582;53.100;6.686;2023-02-02T08:28:34;12.43;;;2.70;;
54683;SDS011;40582;53.100;6.686;2023-02-02T08:31:17;7.32;;;2.20;;
54683;SDS011;40582;53.100;6.686;2023-02-02T08:33:45;5.97;;;2.03;;
54683;SDS011;40582;53.100;6.686;2023-02-02T08:36:12;12.35;;;2.28;;
54683;SDS011;40582;53.100;6.686;2023-02-02T08:38:39;15.43;;;2.70;;
54683;SDS011;40582;53.100;6.686;2023-02-02T08:41:07;10.27;;;2.45;;
54683;SDS011;40582;53.100;6.686;2023-02-02T08:43:34;6.70;;;2.40;;
54683;SDS011;40582;53.100;6.686;2023-02-02T08:46:00;10.98;;;2.20;;
54683;SDS011;40582;53.100;6.686;2023-02-02T08:48:26;7.60;;;2.22;;
54683;SDS011;40582;53.100;6.686;2023-02-02T08:50:56;12.40;;;3.28;;
54683;SDS011;40582;53.100;6.686;2023-02-02T08:53:22;7.90;;;2.20;;
54683;SDS011;40582;53.100;6.686;2023-02-02T08:58:25;10.68;;;3.10;;
54683;SDS011;40582;53.100;6.686;2023-02-02T09:00:52;13.23;;;2.67;;
54683;SDS011;40582;53.100;6.686;2023-02-02T09:03:17;13.82;;;2.85;;
54683;SDS011;40582;53.100;6.686;2023-02-02T09:05:43;10.77;;;2.60;;
54683;SDS011;40582;53.100;6.686;2023-02-02T09:08:09;11.48;;;2.22;;
54683;SDS011;40582;53.100;6.686;2023-02-02T09:10:35;8.95;;;2.20;;
54683;SDS011;40582;53.100;6.686;2023-02-02T09:13:02;7.75;;;2.55;;
54683;SDS011;40582;53.100;6.686;2023-02-02T09:15:28;7.32;;;2.45;;
54683;SDS011;40582;53.100;6.686;2023-02-02T09:17:54;10.45;;;2.70;;
54683;SDS011;40582;53.100;6.686;2023-02-02T09:20:20;7.25;;;2.63;;
54683;SDS011;40582;53.100;6.686;2023-02-02T09:22:46;10.63;;;2.80;;
54683;SDS011;40582;53.100;6.686;2023-02-02T09:25:12;10.13;;;2.78;;
54683;SDS011;40582;53.100;6.686;2023-02-02T09:27:38;8.07;;;3.00;;
54683;SDS011;40582;53.100;6.686;2023-02-02T09:30:05;10.05;;;3.13;;
54683;SDS011;40582;53.100;6.686;2023-02-02T09:32:32;7.68;;;2.55;;
54683;SDS011;40582;53.100;6.686;2023-02-02T09:34:58;7.93;;;2.67;;
54683;SDS011;40582;53.100;6.686;2023-02-02T09:37:24;6.25;;;2.30;;
54683;SDS011;40582;53.100;6.686;2023-02-02T09:39:51;7.63;;;2.83;;
54683;SDS011;40582;53.100;6.686;2023-02-02T09:46:11;7.40;;;3.25;;
54683;SDS011;40582;53.100;6.686;2023-02-02T09:48:17;10.18;;;2.80;;
54683;SDS011;40582;53.100;6.686;2023-02-02T09:50:53;9.00;;;3.08;;
54683;SDS011;40582;53.100;6.686;2023-02-02T09:53:27;6.63;;;2.90;;
54683;SDS011;40582;53.100;6.686;2023-02-02T09:56:03;9.38;;;3.55;;
54683;SDS011;40582;53.100;6.686;2023-02-02T09:58:47;10.57;;;3.83;;
54683;SDS011;40582;53.100;6.686;2023-02-02T10:04:12;8.02;;;3.40;;
54683;SDS011;40582;53.100;6.686;2023-02-02T10:06:46;9.45;;;2.80;;
54683;SDS011;40582;53.100;6.686;2023-02-02T10:20:17;8.18;;;2.92;;
54683;SDS011;40582;53.100;6.686;2023-02-02T10:22:48;8.90;;;3.58;;
54683;SDS011;40582;53.100;6.686;2023-02-02T10:25:14;9.00;;;3.13;;
54683;SDS011;40582;53.100;6.686;2023-02-02T10:27:43;10.90;;;2.95;;
54683;SDS011;40582;53.100;6.686;2023-02-02T10:30:44;12.05;;;3.35;;
54683;SDS011;40582;53.100;6.686;2023-02-02T10:33:36;5.93;;;2.40;;
54683;SDS011;40582;53.100;6.686;2023-02-02T10:36:20;9.18;;;2.50;;
54683;SDS011;40582;53.100;6.686;2023-02-02T10:39:18;8.70;;;2.65;;
54683;SDS011;40582;53.100;6.686;2023-02-02T10:41:58;10.15;;;2.20;;
54683;SDS011;40582;53.100;6.686;2023-02-02T10:44:32;6.28;;;2.13;;
54683;SDS011;40582;53.100;6.686;2023-02-02T10:47:32;10.48;;;3.13;;
54683;SDS011;40582;53.100;6.686;2023-02-02T10:52:31;7.63;;;2.22;;
54683;SDS011;40582;53.100;6.686;2023-02-02T11:03:26;11.50;;;3.05;;
54683;SDS011;40582;53.100;6.686;2023-02-02T11:05:55;11.90;;;2.58;;
54683;SDS011;40582;53.100;6.686;2023-02-02T11:08:42;10.68;;;2.60;;
54683;SDS011;40582;53.100;6.686;2023-02-02T11:11:11;7.78;;;2.60;;
54683;SDS011;40582;53.100;6.686;2023-02-02T11:13:56;10.18;;;2.78;;
54683;SDS011;40582;53.100;6.686;2023-02-02T11:16:27;13.05;;;2.38;;
54683;SDS011;40582;53.100;6.686;2023-02-02T11:18:54;12.75;;;2.72;;
54683;SDS011;40582;53.100;6.686;2023-02-02T11:24:05;12.23;;;2.45;;
54683;SDS011;40582;53.100;6.686;2023-02-02T11:26:46;7.85;;;2.22;;
54683;SDS011;40582;53.100;6.686;2023-02-02T11:31:56;8.85;;;2.67;;
54683;SDS011;40582;53.100;6.686;2023-02-02T11:34:23;8.25;;;2.85;;
54683;SDS011;40582;53.100;6.686;2023-02-02T11:37:09;11.60;;;3.17;;
54683;SDS011;40582;53.100;6.686;2023-02-02T11:39:46;6.72;;;2.50;;
54683;SDS011;40582;53.100;6.686;2023-02-02T11:42:15;11.48;;;3.00;;
54683;SDS011;40582;53.100;6.686;2023-02-02T11:44:49;10.48;;;3.28;;
54683;SDS011;40582;53.100;6.686;2023-02-02T11:47:19;10.85;;;3.20;;
54683;SDS011;40582;53.100;6.686;2023-02-02T11:49:50;6.30;;;2.53;;
54683;SDS011;40582;53.100;6.686;2023-02-02T11:52:18;14.32;;;3.72;;
54683;SDS011;40582;53.100;6.686;2023-02-02T11:54:51;9.52;;;3.10;;
54683;SDS011;40582;53.100;6.686;2023-02-02T11:57:21;15.35;;;4.65;;
54683;SDS011;40582;53.100;6.686;2023-02-02T11:59:49;13.25;;;5.13;;
54683;SDS011;40582;53.100;6.686;2023-02-02T12:04:54;10.98;;;4.50;;
54683;SDS011;40582;53.100;6.686;2023-02-02T12:07:38;11.13;;;4.15;;
54683;SDS011;40582;53.100;6.686;2023-02-02T12:16:05;9.82;;;4.22;;
54683;SDS011;40582;53.100;6.686;2023-02-02T12:43:59;7.25;;;3.03;;
54683;SDS011;40582;53.100;6.686;2023-02-02T12:46:39;9.75;;;2.78;;
54683;SDS011;40582;53.100;6.686;2023-02-02T13:00:10;6.93;;;2.10;;
54683;SDS011;40582;53.100;6.686;2023-02-02T13:05:55;5.20;;;1.45;;
54683;SDS011;40582;53.100;6.686;2023-02-02T13:08:33;5.83;;;1.80;;
54683;SDS011;40582;53.100;6.686;2023-02-02T13:11:07;7.93;;;2.08;;
54683;SDS011;40582;53.100;6.686;2023-02-02T13:14:04;5.97;;;1.70;;
54683;SDS011;40582;53.100;6.686;2023-02-02T13:16:46;6.07;;;1.92;;
54683;SDS011;40582;53.100;6.686;2023-02-02T13:19:30;6.50;;;1.95;;
54683;SDS011;40582;53.100;6.686;2023-02-02T13:22:03;6.55;;;2.50;;
54683;SDS011;40582;53.100;6.686;2023-02-02T13:24:35;5.78;;;2.55;;
54683;SDS011;40582;53.100;6.686;2023-02-02T13:27:03;9.60;;;2.55;;
54683;SDS011;40582;53.100;6.686;2023-02-02T13:29:46;11.30;;;2.42;;
54683;SDS011;40582;53.100;6.686;2023-02-02T13:32:35;6.57;;;2.53;;
54683;SDS011;40582;53.100;6.686;2023-02-02T13:35:05;10.57;;;3.33;;
54683;SDS011;40582;53.100;6.686;2023-02-02T13:40:26;10.68;;;2.78;;
54683;SDS011;40582;53.100;6.686;2023-02-02T13:48:15;8.82;;;2.67;;
54683;SDS011;40582;53.100;6.686;2023-02-02T13:54:02;11.70;;;3.25;;
54683;SDS011;40582;53.100;6.686;2023-02-02T14:02:43;7.07;;;2.63;;
54683;SDS011;40582;53.100;6.686;2023-02-02T14:05:36;8.95;;;2.40;;
54683;SDS011;40582;53.100;6.686;2023-02-02T14:08:20;9.02;;;2.35;;
54683;SDS011;40582;53.100;6.686;2023-02-02T14:13:18;9.80;;;2.38;;
54683;SDS011;40582;53.100;6.686;2023-02-02T14:16:53;15.30;;;2.65;;
54683;SDS011;40582;53.100;6.686;2023-02-02T14:23:55;12.57;;;5.60;;
54683;SDS011;40582;53.100;6.686;2023-02-02T14:32:00;11.13;;;2.53;;
54683;SDS011;40582;53.100;6.686;2023-02-02T14:45:28;7.78;;;2.70;;
54683;SDS011;40582;53.100;6.686;2023-02-02T14:47:54;7.47;;;2.45;;
54683;SDS011;40582;53.100;6.686;2023-02-02T14:50:44;13.00;;;3.20;;
54683;SDS011;40582;53.100;6.686;2023-02-02T14:53:18;11.70;;;3.45;;
54683;SDS011;40582;53.100;6.686;2023-02-02T14:55:57;12.32;;;3.70;;
54683;SDS011;40582;53.100;6.686;2023-02-02T15:06:43;9.70;;;5.70;;
54683;SDS011;40582;53.100;6.686;2023-02-02T15:20:11;15.18;;;6.82;;
54683;SDS011;40582;53.100;6.686;2023-02-02T15:28:09;16.67;;;9.30;;
54683;SDS011;40582;53.100;6.686;2023-02-02T15:30:47;23.23;;;10.52;;
54683;SDS011;40582;53.100;6.686;2023-02-02T15:33:20;18.30;;;9.73;;
54683;SDS011;40582;53.100;6.686;2023-02-02T15:35:56;18.83;;;10.88;;
54683;SDS011;40582;53.100;6.686;2023-02-02T15:38:35;17.95;;;10.60;;
54683;SDS011;40582;53.100;6.686;2023-02-02T15:41:07;23.13;;;11.05;;
54683;SDS011;40582;53.100;6.686;2023-02-02T15:43:47;21.98;;;11.40;;
54683;SDS011;40582;53.100;6.686;2023-02-02T15:46:15;32.95;;;12.15;;
54683;SDS011;40582;53.100;6.686;2023-02-02T15:51:53;29.63;;;12.70;;
54683;SDS011;40582;53.100;6.686;2023-02-02T15:54:23;23.13;;;11.98;;
54683;SDS011;40582;53.100;6.686;2023-02-02T15:57:00;23.63;;;11.63;;
54683;SDS011;40582;53.100;6.686;2023-02-02T15:59:28;27.75;;;11.60;;
54683;SDS011;40582;53.100;6.686;2023-02-02T16:04:40;30.23;;;12.63;;
54683;SDS011;40582;53.100;6.686;2023-02-02T16:07:14;29.25;;;11.55;;
54683;SDS011;40582;53.100;6.686;2023-02-02T16:09:43;29.33;;;11.80;;
54683;SDS011;40582;53.100;6.686;2023-02-02T16:12:16;29.67;;;12.98;;
54683;SDS011;40582;53.100;6.686;2023-02-02T16:14:48;28.67;;;12.13;;
54683;SDS011;40582;53.100;6.686;2023-02-02T16:17:20;30.63;;;11.05;;
54683;SDS011;40582;53.100;6.686;2023-02-02T16:19:48;31.85;;;11.73;;
54683;SDS011;40582;53.100;6.686;2023-02-02T16:22:21;20.08;;;9.95;;
54683;SDS011;40582;53.100;6.686;2023-02-02T16:24:56;28.90;;;13.98;;
54683;SDS011;40582;53.100;6.686;2023-02-02T16:27:25;20.65;;;10.98;;
54683;SDS011;40582;53.100;6.686;2023-02-02T16:29:54;24.35;;;8.85;;
54683;SDS011;40582;53.100;6.686;2023-02-02T16:32:31;21.77;;;9.52;;
54683;SDS011;40582;53.100;6.686;2023-02-02T16:34:59;25.85;;;9.50;;
54683;SDS011;40582;53.100;6.686;2023-02-02T16:37:32;22.73;;;9.65;;
54683;SDS011;40582;53.100;6.686;2023-02-02T16:45:51;22.38;;;9.25;;
54683;SDS011;40582;53.100;6.686;2023-02-02T16:48:45;18.10;;;9.07;;
54683;SDS011;40582;53.100;6.686;2023-02-02T16:54:10;15.65;;;8.88;;
54683;SDS011;40582;53.100;6.686;2023-02-02T16:56:43;28.38;;;10.00;;
54683;SDS011;40582;53.100;6.686;2023-02-02T17:02:03;24.45;;;10.82;;
54683;SDS011;40582;53.100;6.686;2023-02-02T17:04:40;29.13;;;11.02;;
54683;SDS011;40582;53.100;6.686;2023-02-02T17:07:12;28.75;;;10.93;;
54683;SDS011;40582;53.100;6.686;2023-02-02T17:09:41;22.13;;;10.48;;
54683;SDS011;40582;53.100;6.686;2023-02-02T17:14:56;27.27;;;11.60;;
54683;SDS011;40582;53.100;6.686;2023-02-02T17:17:24;32.42;;;12.70;;
54683;SDS011;40582;53.100;6.686;2023-02-02T17:19:51;29.85;;;12.43;;
54683;SDS011;40582;53.100;6.686;2023-02-02T17:22:17;30.83;;;13.18;;
54683;SDS011;40582;53.100;6.686;2023-02-02T17:24:46;37.85;;;13.85;;
54683;SDS011;40582;53.100;6.686;2023-02-02T17:27:22;34.70;;;14.20;;
54683;SDS011;40582;53.100;6.686;2023-02-02T17:29:48;35.28;;;14.75;;
54683;SDS011;40582;53.100;6.686;2023-02-02T17:32:14;42.60;;;15.50;;
54683;SDS011;40582;53.100;6.686;2023-02-02T17:34:39;35.47;;;14.30;;
54683;SDS011;40582;53.100;6.686;2023-02-02T17:37:05;43.55;;;15.38;;
54683;SDS011;40582;53.100;6.686;2023-02-02T17:39:31;56.38;;;17.05;;
54683;SDS011;40582;53.100;6.686;2023-02-02T17:41:57;51.38;;;14.93;;
54683;SDS011;40582;53.100;6.686;2023-02-02T17:44:23;49.70;;;16.20;;
54683;SDS011;40582;53.100;6.686;2023-02-02T17:46:49;40.38;;;15.60;;
54683;SDS011;40582;53.100;6.686;2023-02-02T17:49:14;49.80;;;16.33;;
54683;SDS011;40582;53.100;6.686;2023-02-02T17:51:40;47.80;;;16.63;;
54683;SDS011;40582;53.100;6.686;2023-02-02T17:54:13;55.90;;;18.95;;
54683;SDS011;40582;53.100;6.686;2023-02-02T17:56:40;44.05;;;16.15;;
54683;SDS011;40582;53.100;6.686;2023-02-02T17:59:07;45.90;;;16.48;;
54683;SDS011;40582;53.100;6.686;2023-02-02T18:01:33;53.28;;;15.52;;
54683;SDS011;40582;53.100;6.686;2023-02-02T18:04:01;50.78;;;16.17;;
54683;SDS011;40582;53.100;6.686;2023-02-02T18:06:27;49.40;;;16.35;;
54683;SDS011;40582;53.100;6.686;2023-02-02T18:08:53;39.55;;;13.60;;
54683;SDS011;40582;53.100;6.686;2023-02-02T18:11:18;54.08;;;16.27;;
54683;SDS011;40582;53.100;6.686;2023-02-02T18:13:44;44.85;;;15.65;;